createdAt,value
2018-12-07T00:00:06.848Z,1010.79
2018-12-07T00:01:06.861Z,1010.75
2018-12-07T00:02:06.873Z,1010.61
2018-12-07T00:03:06.908Z,1010.60
2018-12-07T00:04:06.905Z,1010.63
2018-12-07T00:05:06.925Z,1010.58
2018-12-07T00:06:06.931Z,1010.43
2018-12-07T00:07:06.950Z,1010.55
2018-12-07T00:08:06.974Z,1010.53
2018-12-07T00:09:06.988Z,1010.49
2018-12-07T00:10:07.106Z,1010.39
2018-12-07T00:11:07.008Z,1010.41
2018-12-07T00:12:07.118Z,1010.36
2018-12-07T00:13:07.038Z,1010.42
2018-12-07T00:14:07.064Z,1010.34
2018-12-07T00:15:07.080Z,1010.34
2018-12-07T00:16:07.084Z,1010.30
2018-12-07T00:17:07.108Z,1010.33
2018-12-07T00:18:07.112Z,1010.27
2018-12-07T00:19:07.134Z,1010.28
2018-12-07T00:20:07.141Z,1010.31
2018-12-07T00:21:07.164Z,1010.27
2018-12-07T00:22:07.175Z,1010.32
2018-12-07T00:23:07.196Z,1010.29
2018-12-07T00:24:07.207Z,1010.30
2018-12-07T00:25:07.221Z,1010.28
2018-12-07T00:26:07.239Z,1010.28
2018-12-07T00:27:07.253Z,1010.28
2018-12-07T00:28:07.273Z,1010.21
2018-12-07T00:29:07.288Z,1010.18
2018-12-07T00:30:07.299Z,1010.15
2018-12-07T00:31:07.381Z,1010.14
2018-12-07T00:32:07.329Z,1010.15
2018-12-07T00:33:07.338Z,1010.13
2018-12-07T00:34:07.352Z,1010.09
2018-12-07T00:35:07.370Z,1010.10
2018-12-07T00:36:07.382Z,1010.05
2018-12-07T00:37:07.402Z,1010.05
2018-12-07T00:38:07.415Z,1010.06
2018-12-07T00:39:07.428Z,1010.05
2018-12-07T00:40:07.447Z,1010.05
2018-12-07T00:41:07.458Z,1009.97
2018-12-07T00:42:07.478Z,1009.99
2018-12-07T00:43:07.484Z,1009.98
2018-12-07T00:44:07.503Z,1009.98
2018-12-07T00:45:07.550Z,1009.95
2018-12-07T00:46:07.536Z,1009.97
2018-12-07T00:47:07.615Z,1009.96
2018-12-07T00:48:07.567Z,1009.92
2018-12-07T00:49:07.584Z,1009.91
2018-12-07T00:50:07.596Z,1009.89
2018-12-07T00:51:07.621Z,1009.91
2018-12-07T00:52:07.630Z,1009.87
2018-12-07T00:53:07.652Z,1009.87
2018-12-07T00:54:07.658Z,1009.88
2018-12-07T00:55:07.678Z,1009.83
2018-12-07T00:56:07.680Z,1009.87
2018-12-07T00:57:07.701Z,1009.84
2018-12-07T00:58:07.721Z,1009.84
2018-12-07T00:59:07.740Z,1009.84
2018-12-07T01:00:07.743Z,1009.84
2018-12-07T01:01:07.768Z,1009.84
2018-12-07T01:02:07.807Z,1009.87
2018-12-07T01:03:07.802Z,1009.80
2018-12-07T01:04:07.804Z,1009.82
2018-12-07T01:05:07.823Z,1009.81
2018-12-07T01:06:07.838Z,1009.77
2018-12-07T01:07:07.852Z,1009.78
2018-12-07T01:08:07.866Z,1009.77
2018-12-07T01:09:07.889Z,1009.78
2018-12-07T01:10:07.888Z,1009.75
2018-12-07T01:11:07.910Z,1009.73
2018-12-07T01:12:07.919Z,1009.71
2018-12-07T01:13:07.947Z,1009.76
2018-12-07T01:14:07.959Z,1009.70
2018-12-07T01:15:07.969Z,1009.70
2018-12-07T01:16:07.990Z,1009.62
2018-12-07T01:17:08.005Z,1009.66
2018-12-07T01:18:08.015Z,1009.68
2018-12-07T01:19:08.039Z,1009.72
2018-12-07T01:20:08.053Z,1009.69
2018-12-07T01:21:08.068Z,1009.64
2018-12-07T01:22:08.069Z,1009.62
2018-12-07T01:23:08.089Z,1009.60
2018-12-07T01:24:08.107Z,1009.59
2018-12-07T01:25:08.125Z,1009.54
2018-12-07T01:26:08.146Z,1009.55
2018-12-07T01:27:08.155Z,1009.58
2018-12-07T01:28:08.165Z,1009.54
2018-12-07T01:29:08.190Z,1009.55
2018-12-07T01:30:08.203Z,1009.50
2018-12-07T01:31:08.217Z,1009.53
2018-12-07T01:32:08.230Z,1009.49
2018-12-07T01:33:08.246Z,1009.53
2018-12-07T01:34:08.261Z,1009.47
2018-12-07T01:35:08.273Z,1009.44
2018-12-07T01:36:08.285Z,1009.47
2018-12-07T01:37:08.299Z,1009.40
2018-12-07T01:38:08.321Z,1009.40
2018-12-07T01:39:08.331Z,1009.40
2018-12-07T01:40:08.349Z,1009.39
2018-12-07T01:41:08.365Z,1009.37
2018-12-07T01:42:08.385Z,1009.40
2018-12-07T01:43:08.392Z,1009.34
2018-12-07T01:44:08.413Z,1009.32
2018-12-07T01:45:08.427Z,1009.34
2018-12-07T01:46:08.440Z,1009.32
2018-12-07T01:47:08.454Z,1009.36
2018-12-07T01:48:08.469Z,1009.31
2018-12-07T01:49:08.484Z,1009.29
2018-12-07T01:50:08.503Z,1009.29
2018-12-07T01:51:08.517Z,1009.28
2018-12-07T01:52:08.534Z,1009.26
2018-12-07T01:53:08.547Z,1009.26
2018-12-07T01:54:08.557Z,1009.26
2018-12-07T01:55:08.576Z,1009.24
2018-12-07T01:56:08.587Z,1009.24
2018-12-07T01:57:08.611Z,1009.21
2018-12-07T01:58:08.620Z,1009.22
2018-12-07T01:59:08.637Z,1009.19
2018-12-07T02:00:08.653Z,1009.21
2018-12-07T02:01:08.666Z,1009.21
2018-12-07T02:02:08.687Z,1009.22
2018-12-07T02:03:08.701Z,1009.20
2018-12-07T02:04:08.710Z,1009.21
2018-12-07T02:05:08.724Z,1009.16
2018-12-07T02:06:08.743Z,1009.19
2018-12-07T02:07:08.757Z,1009.17
2018-12-07T02:08:08.771Z,1009.15
2018-12-07T02:09:08.792Z,1009.16
2018-12-07T02:10:08.804Z,1009.11
2018-12-07T02:11:08.823Z,1009.05
2018-12-07T02:12:08.851Z,1009.10
2018-12-07T02:13:08.847Z,1009.02
2018-12-07T02:14:08.865Z,1009.04
2018-12-07T02:15:08.883Z,1009.01
2018-12-07T02:16:08.883Z,1009.02
2018-12-07T02:17:08.909Z,1008.99
2018-12-07T02:18:08.919Z,1008.95
2018-12-07T02:19:08.936Z,1008.95
2018-12-07T02:20:08.951Z,1008.96
2018-12-07T02:21:08.975Z,1008.98
2018-12-07T02:22:09.033Z,1008.97
2018-12-07T02:23:08.997Z,1008.98
2018-12-07T02:24:09.024Z,1008.97
2018-12-07T02:25:09.038Z,1008.95
2018-12-07T02:26:09.047Z,1008.89
2018-12-07T02:27:09.061Z,1008.90
2018-12-07T02:28:09.085Z,1008.83
2018-12-07T02:29:09.089Z,1008.88
2018-12-07T02:30:09.122Z,1008.82
2018-12-07T02:31:09.126Z,1008.86
2018-12-07T02:32:09.133Z,1008.82
2018-12-07T02:33:09.151Z,1008.83
2018-12-07T02:34:09.170Z,1008.78
2018-12-07T02:35:09.177Z,1008.77
2018-12-07T02:36:09.194Z,1008.78
2018-12-07T02:37:09.217Z,1008.78
2018-12-07T02:38:09.217Z,1008.77
2018-12-07T02:39:09.241Z,1008.75
2018-12-07T02:40:09.248Z,1008.74
2018-12-07T02:41:09.274Z,1008.70
2018-12-07T02:42:09.279Z,1008.69
2018-12-07T02:43:09.306Z,1008.69
2018-12-07T02:44:09.337Z,1008.70
2018-12-07T02:45:09.327Z,1008.64
2018-12-07T02:46:09.342Z,1008.66
2018-12-07T02:47:09.358Z,1008.63
2018-12-07T02:48:09.369Z,1008.63
2018-12-07T02:49:09.384Z,1008.63
2018-12-07T02:50:09.400Z,1008.57
2018-12-07T02:51:09.412Z,1008.57
2018-12-07T02:52:09.427Z,1008.58
2018-12-07T02:53:09.441Z,1008.60
2018-12-07T02:54:09.456Z,1008.61
2018-12-07T02:55:09.458Z,1008.61
2018-12-07T02:56:09.487Z,1008.63
2018-12-07T02:57:09.527Z,1008.61
2018-12-07T02:58:09.519Z,1008.61
2018-12-07T02:59:09.670Z,1008.58
2018-12-07T03:00:09.549Z,1008.57
2018-12-07T03:01:09.595Z,1008.56
2018-12-07T03:02:09.575Z,1008.52
2018-12-07T03:03:09.597Z,1008.49
2018-12-07T03:04:09.611Z,1008.53
2018-12-07T03:05:09.641Z,1008.50
2018-12-07T03:06:09.635Z,1008.50
2018-12-07T03:07:09.639Z,1008.47
2018-12-07T03:08:09.654Z,1008.44
2018-12-07T03:09:09.691Z,1008.42
2018-12-07T03:10:09.699Z,1008.39
2018-12-07T03:11:09.706Z,1008.41
2018-12-07T03:12:09.725Z,1008.41
2018-12-07T03:13:09.736Z,1008.41
2018-12-07T03:14:09.758Z,1008.37
2018-12-07T03:15:09.783Z,1008.39
2018-12-07T03:16:09.789Z,1008.35
2018-12-07T03:17:09.795Z,1008.35
2018-12-07T03:18:09.814Z,1008.33
2018-12-07T03:19:09.835Z,1008.35
2018-12-07T03:20:09.839Z,1008.31
2018-12-07T03:21:09.857Z,1008.34
2018-12-07T03:22:09.866Z,1008.28
2018-12-07T03:23:09.892Z,1008.26
2018-12-07T03:24:09.903Z,1008.28
2018-12-07T03:25:09.927Z,1008.23
2018-12-07T03:26:09.943Z,1008.19
2018-12-07T03:27:09.948Z,1008.18
2018-12-07T03:28:09.972Z,1008.19
2018-12-07T03:29:09.990Z,1008.16
2018-12-07T03:30:09.996Z,1008.17
2018-12-07T03:31:10.041Z,1008.13
2018-12-07T03:32:10.024Z,1008.11
2018-12-07T03:33:10.026Z,1008.10
2018-12-07T03:34:10.051Z,1008.10
2018-12-07T03:35:10.079Z,1008.10
2018-12-07T03:36:10.078Z,1008.06
2018-12-07T03:37:10.096Z,1008.08
2018-12-07T03:38:10.125Z,1008.11
2018-12-07T03:39:10.122Z,1008.07
2018-12-07T03:40:10.136Z,1008.05
2018-12-07T03:41:10.155Z,1008.05
2018-12-07T03:42:10.175Z,1008.03
2018-12-07T03:43:10.181Z,1008.03
2018-12-07T03:44:10.199Z,1008.01
2018-12-07T03:45:10.218Z,1007.96
2018-12-07T03:46:10.232Z,1007.99
2018-12-07T03:47:10.244Z,1007.93
2018-12-07T03:48:10.255Z,1007.96
2018-12-07T03:49:10.275Z,1007.97
2018-12-07T03:50:10.287Z,1007.92
2018-12-07T03:51:10.306Z,1007.91
2018-12-07T03:52:10.316Z,1007.94
2018-12-07T03:53:10.333Z,1007.92
2018-12-07T03:54:10.714Z,1007.88
2018-12-07T03:55:10.363Z,1007.88
2018-12-07T03:56:10.375Z,1007.83
2018-12-07T03:57:10.390Z,1007.85
2018-12-07T03:58:10.407Z,1007.86
2018-12-07T03:59:10.421Z,1007.84
2018-12-07T04:00:10.433Z,1007.84
2018-12-07T04:01:10.446Z,1007.85
2018-12-07T04:02:10.469Z,1007.79
2018-12-07T04:03:10.485Z,1007.80
2018-12-07T04:04:10.491Z,1007.79
2018-12-07T04:05:10.507Z,1007.77
2018-12-07T04:06:10.523Z,1007.78
2018-12-07T04:07:10.536Z,1007.69
2018-12-07T04:08:10.557Z,1007.68
2018-12-07T04:09:10.567Z,1007.64
2018-12-07T04:10:10.581Z,1007.67
2018-12-07T04:11:10.601Z,1007.65
2018-12-07T04:12:10.618Z,1007.65
2018-12-07T04:13:10.628Z,1007.65
2018-12-07T04:14:10.643Z,1007.61
2018-12-07T04:15:10.656Z,1007.64
2018-12-07T04:16:10.660Z,1007.54
2018-12-07T04:17:10.686Z,1007.57
2018-12-07T04:18:10.697Z,1007.58
2018-12-07T04:19:10.741Z,1007.54
2018-12-07T04:20:10.847Z,1007.52
2018-12-07T04:21:10.744Z,1007.49
2018-12-07T04:22:10.764Z,1007.49
2018-12-07T04:23:10.776Z,1007.47
2018-12-07T04:24:10.787Z,1007.47
2018-12-07T04:25:10.796Z,1007.45
2018-12-07T04:26:10.816Z,1007.45
2018-12-07T04:27:10.826Z,1007.48
2018-12-07T04:28:10.850Z,1007.44
2018-12-07T04:29:10.864Z,1007.46
2018-12-07T04:30:10.876Z,1007.42
2018-12-07T04:31:10.889Z,1007.38
2018-12-07T04:32:10.902Z,1007.43
2018-12-07T04:33:10.917Z,1007.42
2018-12-07T04:34:10.922Z,1007.39
2018-12-07T04:35:10.953Z,1007.39
2018-12-07T04:36:10.959Z,1007.36
2018-12-07T04:37:10.974Z,1007.36
2018-12-07T04:38:10.991Z,1007.34
2018-12-07T04:39:11.020Z,1007.35
2018-12-07T04:40:11.017Z,1007.27
2018-12-07T04:41:11.033Z,1007.33
2018-12-07T04:42:11.036Z,1007.29
2018-12-07T04:43:11.074Z,1007.26
2018-12-07T04:44:11.082Z,1007.21
2018-12-07T04:45:11.097Z,1007.22
2018-12-07T04:46:11.115Z,1007.16
2018-12-07T04:47:11.121Z,1007.19
2018-12-07T04:48:11.135Z,1007.19
2018-12-07T04:49:11.150Z,1007.24
2018-12-07T04:50:11.169Z,1007.18
2018-12-07T04:51:11.177Z,1007.19
2018-12-07T04:52:11.231Z,1007.18
2018-12-07T04:53:11.216Z,1007.20
2018-12-07T04:54:11.225Z,1007.14
2018-12-07T04:55:11.241Z,1007.10
2018-12-07T04:56:11.258Z,1007.15
2018-12-07T04:57:11.253Z,1007.10
2018-12-07T04:58:11.277Z,1007.11
2018-12-07T04:59:11.291Z,1007.07
2018-12-07T05:00:11.310Z,1007.10
2018-12-07T05:01:11.323Z,1007.06
2018-12-07T05:02:11.336Z,1007.08
2018-12-07T05:03:11.349Z,1007.10
2018-12-07T05:04:11.372Z,1007.11
2018-12-07T05:05:11.383Z,1007.09
2018-12-07T05:06:11.393Z,1007.05
2018-12-07T05:07:11.412Z,1007.06
2018-12-07T05:08:11.421Z,1007.04
2018-12-07T05:09:11.446Z,1007.03
2018-12-07T05:10:11.444Z,1007.03
2018-12-07T05:11:11.464Z,1007.03
2018-12-07T05:12:11.477Z,1007.00
2018-12-07T05:13:11.489Z,1007.04
2018-12-07T05:14:11.503Z,1007.04
2018-12-07T05:15:11.516Z,1007.04
2018-12-07T05:16:11.538Z,1007.03
2018-12-07T05:17:11.538Z,1007.00
2018-12-07T05:18:11.561Z,1006.97
2018-12-07T05:19:12.319Z,1006.99
2018-12-07T05:20:11.590Z,1006.96
2018-12-07T05:21:11.699Z,1006.96
2018-12-07T05:22:11.616Z,1006.95
2018-12-07T05:23:11.658Z,1006.91
2018-12-07T05:24:11.641Z,1006.89
2018-12-07T05:25:11.665Z,1006.92
2018-12-07T05:26:11.689Z,1006.83
2018-12-07T05:27:11.691Z,1006.84
2018-12-07T05:28:11.698Z,1006.89
2018-12-07T05:29:11.722Z,1006.85
2018-12-07T05:30:11.729Z,1006.90
2018-12-07T05:31:11.753Z,1006.83
2018-12-07T05:32:11.752Z,1006.81
2018-12-07T05:33:11.777Z,1006.78
2018-12-07T05:34:11.789Z,1006.83
2018-12-07T05:35:11.804Z,1006.81
2018-12-07T05:36:11.818Z,1006.78
2018-12-07T05:37:11.825Z,1006.76
2018-12-07T05:38:11.851Z,1006.78
2018-12-07T05:39:11.857Z,1006.78
2018-12-07T05:40:11.859Z,1006.74
2018-12-07T05:41:11.879Z,1006.73
2018-12-07T05:42:11.909Z,1006.71
2018-12-07T05:43:11.932Z,1006.67
2018-12-07T05:44:11.921Z,1006.66
2018-12-07T05:45:11.950Z,1006.66
2018-12-07T05:46:11.954Z,1006.69
2018-12-07T05:47:11.973Z,1006.61
2018-12-07T05:48:11.986Z,1006.67
2018-12-07T05:49:11.995Z,1006.64
2018-12-07T05:50:12.012Z,1006.65
2018-12-07T05:51:12.029Z,1006.60
2018-12-07T05:52:12.040Z,1006.58
2018-12-07T05:53:12.062Z,1006.55
2018-12-07T05:54:12.070Z,1006.53
2018-12-07T05:55:12.079Z,1006.50
2018-12-07T05:56:12.092Z,1006.51
2018-12-07T05:57:12.110Z,1006.43
2018-12-07T05:58:12.122Z,1006.45
2018-12-07T05:59:12.136Z,1006.45
2018-12-07T06:00:12.156Z,1006.37
2018-12-07T06:01:12.172Z,1006.40
2018-12-07T06:02:12.181Z,1006.39
2018-12-07T06:03:12.192Z,1006.38
2018-12-07T06:04:12.216Z,1006.35
2018-12-07T06:05:12.220Z,1006.33
2018-12-07T06:06:12.245Z,1006.33
2018-12-07T06:07:12.249Z,1006.26
2018-12-07T06:08:12.269Z,1006.25
2018-12-07T06:09:12.276Z,1006.25
2018-12-07T06:10:12.290Z,1006.23
2018-12-07T06:11:12.304Z,1006.23
2018-12-07T06:12:12.318Z,1006.18
2018-12-07T06:13:12.337Z,1006.18
2018-12-07T06:14:12.350Z,1006.17
2018-12-07T06:15:12.358Z,1006.15
2018-12-07T06:16:12.378Z,1006.14
2018-12-07T06:17:12.394Z,1006.14
2018-12-07T06:18:12.400Z,1006.19
2018-12-07T06:19:12.414Z,1006.15
2018-12-07T06:20:12.429Z,1006.14
2018-12-07T06:21:12.462Z,1006.08
2018-12-07T06:22:12.457Z,1006.09
2018-12-07T06:23:12.475Z,1006.08
2018-12-07T06:24:12.483Z,1006.06
2018-12-07T06:25:12.519Z,1006.07
2018-12-07T06:26:12.542Z,1006.02
2018-12-07T06:27:12.527Z,1006.07
2018-12-07T06:28:12.545Z,1006.02
2018-12-07T06:29:12.557Z,1006.04
2018-12-07T06:30:12.575Z,1006.00
2018-12-07T06:31:12.584Z,1005.99
2018-12-07T06:32:12.607Z,1005.95
2018-12-07T06:33:12.636Z,1005.96
2018-12-07T06:34:12.628Z,1005.95
2018-12-07T06:35:12.640Z,1005.97
2018-12-07T06:36:12.658Z,1005.90
2018-12-07T06:37:12.686Z,1005.91
2018-12-07T06:38:12.687Z,1005.90
2018-12-07T06:39:12.715Z,1005.87
2018-12-07T06:40:12.715Z,1005.86
2018-12-07T06:41:12.720Z,1005.87
2018-12-07T06:42:12.739Z,1005.82
2018-12-07T06:43:12.757Z,1005.84
2018-12-07T06:44:12.761Z,1005.89
2018-12-07T06:45:12.784Z,1005.84
2018-12-07T06:46:12.796Z,1005.85
2018-12-07T06:47:12.808Z,1005.82
2018-12-07T06:48:12.824Z,1005.85
2018-12-07T06:49:12.884Z,1005.86
2018-12-07T06:50:12.856Z,1005.85
2018-12-07T06:51:12.898Z,1005.82
2018-12-07T06:52:12.880Z,1005.85
2018-12-07T06:53:12.910Z,1005.85
2018-12-07T06:54:12.908Z,1005.82
2018-12-07T06:55:12.930Z,1005.78
2018-12-07T06:56:12.940Z,1005.73
2018-12-07T06:57:12.984Z,1005.71
2018-12-07T06:58:12.962Z,1005.70
2018-12-07T06:59:13.000Z,1005.71
2018-12-07T07:00:12.998Z,1005.67
2018-12-07T07:01:13.013Z,1005.65
2018-12-07T07:02:13.025Z,1005.64
2018-12-07T07:03:13.038Z,1005.66
2018-12-07T07:04:13.052Z,1005.60
2018-12-07T07:05:13.062Z,1005.61
2018-12-07T07:06:13.079Z,1005.56
2018-12-07T07:07:13.103Z,1005.56
2018-12-07T07:08:13.106Z,1005.58
2018-12-07T07:09:13.128Z,1005.55
2018-12-07T07:10:13.143Z,1005.52
2018-12-07T07:11:13.149Z,1005.57
2018-12-07T07:12:13.162Z,1005.53
2018-12-07T07:13:13.183Z,1005.52
2018-12-07T07:14:13.847Z,1005.54
2018-12-07T07:15:13.235Z,1005.51
2018-12-07T07:16:13.232Z,1005.49
2018-12-07T07:17:13.247Z,1005.53
2018-12-07T07:18:13.268Z,1005.52
2018-12-07T07:19:13.267Z,1005.53
2018-12-07T07:20:13.290Z,1005.51
2018-12-07T07:21:13.294Z,1005.48
2018-12-07T07:22:13.318Z,1005.52
2018-12-07T07:23:13.323Z,1005.54
2018-12-07T07:24:13.338Z,1005.48
2018-12-07T07:25:13.348Z,1005.52
2018-12-07T07:26:13.365Z,1005.51
2018-12-07T07:27:13.379Z,1005.46
2018-12-07T07:28:13.396Z,1005.44
2018-12-07T07:29:13.409Z,1005.47
2018-12-07T07:30:13.420Z,1005.45
2018-12-07T07:31:13.435Z,1005.47
2018-12-07T07:32:13.450Z,1005.46
2018-12-07T07:33:13.466Z,1005.45
2018-12-07T07:34:13.510Z,1005.42
2018-12-07T07:35:13.492Z,1005.43
2018-12-07T07:36:13.505Z,1005.42
2018-12-07T07:37:13.532Z,1005.41
2018-12-07T07:38:13.541Z,1005.39
2018-12-07T07:39:13.553Z,1005.34
2018-12-07T07:40:13.559Z,1005.31
2018-12-07T07:41:13.580Z,1005.35
2018-12-07T07:42:13.597Z,1005.31
2018-12-07T07:43:13.602Z,1005.33
2018-12-07T07:44:13.623Z,1005.30
2018-12-07T07:45:13.631Z,1005.25
2018-12-07T07:46:13.651Z,1005.26
2018-12-07T07:47:14.353Z,1005.24
2018-12-07T07:48:13.667Z,1005.25
2018-12-07T07:49:13.691Z,1005.21
2018-12-07T07:50:13.708Z,1005.22
2018-12-07T07:51:13.719Z,1005.25
2018-12-07T07:52:13.743Z,1005.18
2018-12-07T07:53:13.760Z,1005.14
2018-12-07T07:54:13.772Z,1005.13
2018-12-07T07:55:13.784Z,1005.12
2018-12-07T07:56:15.573Z,1005.10
2018-12-07T07:57:13.806Z,1005.13
2018-12-07T07:58:13.824Z,1005.10
2018-12-07T07:59:13.834Z,1005.11
2018-12-07T08:00:13.852Z,1005.10
2018-12-07T08:01:13.867Z,1005.14
2018-12-07T08:02:13.875Z,1005.11
2018-12-07T08:03:13.910Z,1005.06
2018-12-07T08:04:13.907Z,1005.10
2018-12-07T08:05:13.924Z,1005.11
2018-12-07T08:06:13.939Z,1005.09
2018-12-07T08:07:13.944Z,1005.09
2018-12-07T08:08:13.966Z,1005.12
2018-12-07T08:09:13.976Z,1005.06
2018-12-07T08:10:13.985Z,1005.11
2018-12-07T08:11:14.006Z,1005.06
2018-12-07T08:12:14.022Z,1005.09
2018-12-07T08:13:14.034Z,1005.03
2018-12-07T08:14:14.044Z,1005.03
2018-12-07T08:15:14.065Z,1004.98
2018-12-07T08:16:14.075Z,1005.05
2018-12-07T08:17:14.086Z,1005.02
2018-12-07T08:18:14.105Z,1005.01
2018-12-07T08:19:14.124Z,1004.98
2018-12-07T08:20:14.131Z,1004.95
2018-12-07T08:21:14.147Z,1004.97
2018-12-07T08:22:14.169Z,1004.96
2018-12-07T08:23:14.916Z,1004.91
2018-12-07T08:24:14.197Z,1004.93
2018-12-07T08:25:14.200Z,1004.97
2018-12-07T08:26:14.217Z,1004.95
2018-12-07T08:27:14.236Z,1004.92
2018-12-07T08:28:14.246Z,1004.95
2018-12-07T08:29:14.261Z,1004.97
2018-12-07T08:30:14.279Z,1004.92
2018-12-07T08:31:14.316Z,1004.91
2018-12-07T08:32:14.308Z,1004.89
2018-12-07T08:33:14.314Z,1004.92
2018-12-07T08:34:14.342Z,1004.95
2018-12-07T08:35:14.340Z,1004.94
2018-12-07T08:36:14.367Z,1004.86
2018-12-07T08:37:14.374Z,1004.84
2018-12-07T08:38:14.393Z,1004.79
2018-12-07T08:39:14.401Z,1004.84
2018-12-07T08:40:14.424Z,1004.79
2018-12-07T08:41:14.433Z,1004.80
2018-12-07T08:42:14.444Z,1004.74
2018-12-07T08:43:14.515Z,1004.77
2018-12-07T08:44:14.474Z,1004.73
2018-12-07T08:45:14.492Z,1004.76
2018-12-07T08:46:14.504Z,1004.72
2018-12-07T08:47:14.520Z,1004.72
2018-12-07T08:48:14.540Z,1004.72
2018-12-07T08:49:14.547Z,1004.64
2018-12-07T08:50:14.563Z,1004.68
2018-12-07T08:51:14.575Z,1004.73
2018-12-07T08:52:14.591Z,1004.70
2018-12-07T08:53:14.608Z,1004.70
2018-12-07T08:54:14.619Z,1004.66
2018-12-07T08:55:14.637Z,1004.65
2018-12-07T08:56:14.652Z,1004.59
2018-12-07T08:57:14.662Z,1004.56
2018-12-07T08:58:14.677Z,1004.59
2018-12-07T08:59:14.689Z,1004.60
2018-12-07T09:00:14.703Z,1004.59
2018-12-07T09:01:14.717Z,1004.58
2018-12-07T09:02:14.740Z,1004.60
2018-12-07T09:03:14.747Z,1004.53
2018-12-07T09:04:14.759Z,1004.55
2018-12-07T09:05:14.781Z,1004.50
2018-12-07T09:06:14.799Z,1004.51
2018-12-07T09:07:14.812Z,1004.47
2018-12-07T09:08:15.392Z,1004.53
2018-12-07T09:09:14.837Z,1004.51
2018-12-07T09:10:14.875Z,1004.45
2018-12-07T09:11:14.869Z,1004.41
2018-12-07T09:12:14.879Z,1004.37
2018-12-07T09:13:14.895Z,1004.35
2018-12-07T09:14:14.903Z,1004.28
2018-12-07T09:15:14.923Z,1004.29
2018-12-07T09:16:14.936Z,1004.23
2018-12-07T09:17:14.954Z,1004.20
2018-12-07T09:18:14.969Z,1004.21
2018-12-07T09:19:14.980Z,1004.25
2018-12-07T09:20:14.995Z,1004.22
2018-12-07T09:21:15.013Z,1004.21
2018-12-07T09:22:15.025Z,1004.20
2018-12-07T09:23:15.043Z,1004.17
2018-12-07T09:24:15.064Z,1004.14
2018-12-07T09:25:15.069Z,1004.06
2018-12-07T09:26:15.084Z,1004.07
2018-12-07T09:27:15.093Z,1004.06
2018-12-07T09:28:15.111Z,1004.12
2018-12-07T09:29:15.124Z,1004.09
2018-12-07T09:30:15.142Z,1004.09
2018-12-07T09:31:15.155Z,1004.07
2018-12-07T09:32:15.179Z,1004.06
2018-12-07T09:33:15.182Z,1004.02
2018-12-07T09:34:15.195Z,1004.03
2018-12-07T09:35:15.218Z,1003.99
2018-12-07T09:36:15.221Z,1004.08
2018-12-07T09:37:15.245Z,1003.97
2018-12-07T09:38:15.265Z,1003.96
2018-12-07T09:39:15.278Z,1003.93
2018-12-07T09:40:15.286Z,1003.87
2018-12-07T09:41:15.311Z,1003.94
2018-12-07T09:42:15.326Z,1003.90
2018-12-07T09:43:15.333Z,1003.94
2018-12-07T09:44:15.365Z,1003.96
2018-12-07T09:45:15.362Z,1003.88
2018-12-07T09:46:15.383Z,1003.88
2018-12-07T09:47:15.387Z,1003.84
2018-12-07T09:48:15.407Z,1003.80
2018-12-07T09:49:15.419Z,1003.66
2018-12-07T09:50:15.431Z,1003.69
2018-12-07T09:51:15.445Z,1003.68
2018-12-07T09:52:15.473Z,1003.62
2018-12-07T09:53:15.481Z,1003.66
2018-12-07T09:54:15.489Z,1003.57
2018-12-07T09:55:15.505Z,1003.60
2018-12-07T09:56:15.512Z,1003.55
2018-12-07T09:57:15.539Z,1003.57
2018-12-07T09:58:15.543Z,1003.50
2018-12-07T09:59:15.573Z,1003.48
2018-12-07T10:00:15.579Z,1003.45
2018-12-07T10:01:15.595Z,1003.43
2018-12-07T10:02:15.606Z,1003.44
2018-12-07T10:03:15.626Z,1003.46
2018-12-07T10:04:15.637Z,1003.44
2018-12-07T10:05:15.651Z,1003.48
2018-12-07T10:06:16.454Z,1003.39
2018-12-07T10:07:15.681Z,1003.41
2018-12-07T10:08:15.697Z,1003.43
2018-12-07T10:09:15.714Z,1003.41
2018-12-07T10:10:15.721Z,1003.36
2018-12-07T10:11:15.733Z,1003.36
2018-12-07T10:12:15.756Z,1003.28
2018-12-07T10:13:15.781Z,1003.29
2018-12-07T10:14:15.778Z,1003.22
2018-12-07T10:15:15.793Z,1003.15
2018-12-07T10:16:15.806Z,1003.18
2018-12-07T10:17:15.887Z,1003.08
2018-12-07T10:18:15.837Z,1003.04
2018-12-07T10:19:15.859Z,1003.02
2018-12-07T10:20:15.874Z,1002.91
2018-12-07T10:21:15.894Z,1002.87
2018-12-07T10:22:15.898Z,1002.83
2018-12-07T10:23:15.925Z,1002.75
2018-12-07T10:24:15.940Z,1002.81
2018-12-07T10:25:15.947Z,1002.89
2018-12-07T10:26:15.960Z,1002.76
2018-12-07T10:27:15.985Z,1002.85
2018-12-07T10:28:15.987Z,1002.81
2018-12-07T10:29:16.008Z,1002.85
2018-12-07T10:30:16.014Z,1002.85
2018-12-07T10:31:16.026Z,1002.83
2018-12-07T10:32:16.096Z,1002.84
2018-12-07T10:33:16.058Z,1002.82
2018-12-07T10:34:16.076Z,1002.74
2018-12-07T10:35:16.090Z,1002.79
2018-12-07T10:36:16.100Z,1002.66
2018-12-07T10:37:16.116Z,1002.73
2018-12-07T10:38:16.127Z,1002.67
2018-12-07T10:39:16.139Z,1002.67
2018-12-07T10:40:16.157Z,1002.58
2018-12-07T10:41:16.175Z,1002.56
2018-12-07T10:42:16.194Z,1002.51
2018-12-07T10:43:16.202Z,1002.50
2018-12-07T10:44:16.223Z,1002.32
2018-12-07T10:45:16.234Z,1002.48
2018-12-07T10:46:16.242Z,1002.42
2018-12-07T10:47:16.256Z,1002.39
2018-12-07T10:48:16.290Z,1002.36
2018-12-07T10:49:16.288Z,1002.38
2018-12-07T10:50:16.298Z,1002.25
2018-12-07T10:51:16.318Z,1002.26
2018-12-07T10:52:16.330Z,1002.25
2018-12-07T10:53:16.346Z,1002.20
2018-12-07T10:54:16.358Z,1002.19
2018-12-07T10:55:16.418Z,1002.16
2018-12-07T10:56:16.398Z,1002.16
2018-12-07T10:57:16.404Z,1002.22
2018-12-07T10:58:16.418Z,1002.23
2018-12-07T10:59:16.435Z,1002.09
2018-12-07T11:00:22.594Z,1002.12
2018-12-07T11:01:16.456Z,1002.06
2018-12-07T11:02:16.490Z,1002.03
2018-12-07T11:03:16.490Z,1002.01
2018-12-07T11:04:16.504Z,1001.94
2018-12-07T11:05:16.520Z,1001.96
2018-12-07T11:06:16.537Z,1001.89
2018-12-07T11:07:16.548Z,1001.99
2018-12-07T11:08:16.564Z,1001.94
2018-12-07T11:09:16.636Z,1001.86
2018-12-07T11:10:16.588Z,1001.95
2018-12-07T11:11:16.612Z,1001.90
2018-12-07T11:12:16.623Z,1001.91
2018-12-07T11:13:16.638Z,1001.93
2018-12-07T11:14:16.652Z,1001.92
2018-12-07T11:15:16.662Z,1001.88
2018-12-07T11:16:16.692Z,1001.89
2018-12-07T11:17:16.692Z,1001.88
2018-12-07T11:18:16.712Z,1001.76
2018-12-07T11:19:16.727Z,1001.68
2018-12-07T11:20:16.740Z,1001.64
2018-12-07T11:21:16.751Z,1001.63
2018-12-07T11:22:16.774Z,1001.67
2018-12-07T11:23:16.784Z,1001.57
2018-12-07T11:24:16.798Z,1001.56
2018-12-07T11:25:16.822Z,1001.56
2018-12-07T11:26:16.826Z,1001.52
2018-12-07T11:27:16.841Z,1001.44
2018-12-07T11:28:16.862Z,1001.56
2018-12-07T11:29:16.872Z,1001.49
2018-12-07T11:30:16.896Z,1001.46
2018-12-07T11:31:16.901Z,1001.47
2018-12-07T11:32:16.933Z,1001.48
2018-12-07T11:33:16.932Z,1001.46
2018-12-07T11:34:16.949Z,1001.47
2018-12-07T11:35:16.961Z,1001.36
2018-12-07T11:36:16.978Z,1001.43
2018-12-07T11:37:16.988Z,1001.38
2018-12-07T11:38:16.998Z,1001.38
2018-12-07T11:39:17.027Z,1001.35
2018-12-07T11:40:17.042Z,1001.30
2018-12-07T11:41:17.047Z,1001.33
2018-12-07T11:42:17.066Z,1001.37
2018-12-07T11:43:17.078Z,1001.28
2018-12-07T11:44:17.096Z,1001.37
2018-12-07T11:45:17.109Z,1001.29
2018-12-07T11:46:17.133Z,1001.22
2018-12-07T11:47:17.141Z,1001.28
2018-12-07T11:48:17.188Z,1001.11
2018-12-07T11:49:17.172Z,1001.08
2018-12-07T11:50:17.186Z,1001.08
2018-12-07T11:51:17.194Z,1001.00
2018-12-07T11:52:17.216Z,1001.00
2018-12-07T11:53:17.226Z,1000.85
2018-12-07T11:54:17.242Z,1000.83
2018-12-07T11:55:17.260Z,1000.76
2018-12-07T11:56:17.272Z,1000.55
2018-12-07T11:57:17.282Z,1000.60
2018-12-07T11:58:17.294Z,1000.51
2018-12-07T11:59:17.317Z,1000.60
2018-12-07T12:00:17.336Z,1000.47
2018-12-07T12:01:17.350Z,1000.39
2018-12-07T12:02:17.392Z,1000.39
2018-12-07T12:03:17.375Z,1000.33
2018-12-07T12:04:17.396Z,1000.31
2018-12-07T12:05:17.400Z,1000.35